createdAt,value
2024-05-09T00:00:39.587Z,5.50
2024-05-09T00:05:38.735Z,5.45
2024-05-09T00:10:37.530Z,4.97
2024-05-09T00:15:34.698Z,4.60
2024-05-09T00:20:37.557Z,4.47
2024-05-09T00:25:38.264Z,4.82
2024-05-09T00:30:36.096Z,4.63
2024-05-09T00:35:32.570Z,5.03
2024-05-09T00:40:35.748Z,5.22
2024-05-09T00:45:37.792Z,4.95
2024-05-09T00:50:36.524Z,5.53
2024-05-09T00:55:33.040Z,5.20
2024-05-09T01:00:35.976Z,5.05
2024-05-09T01:05:37.379Z,5.20
2024-05-09T01:10:35.045Z,4.43
2024-05-09T01:15:31.280Z,4.93
2024-05-09T01:20:36.973Z,5.47
2024-05-09T01:30:37.104Z,5.47
2024-05-09T01:35:36.021Z,5.22
2024-05-09T01:40:38.330Z,5.55
2024-05-09T01:45:40.911Z,5.30
2024-05-09T01:50:40.958Z,5.75
2024-05-09T01:55:37.901Z,5.68
2024-05-09T02:00:39.345Z,5.13
2024-05-09T02:05:40.378Z,5.00
2024-05-09T02:10:35.466Z,5.97
2024-05-09T02:15:30.548Z,5.50
2024-05-09T02:20:33.146Z,5.57
2024-05-09T02:25:33.957Z,5.22
2024-05-09T02:30:39.423Z,5.30
2024-05-09T02:35:36.668Z,6.03
2024-05-09T02:40:38.561Z,5.68
2024-05-09T02:45:34.832Z,6.32
2024-05-09T02:50:37.017Z,5.60
2024-05-09T02:55:38.903Z,6.20
2024-05-09T03:00:39.049Z,6.65
2024-05-09T03:05:39.063Z,5.72
2024-05-09T03:10:38.655Z,6.50
2024-05-09T03:20:34.197Z,6.65
2024-05-09T03:25:30.865Z,6.30
2024-05-09T03:30:39.772Z,6.53
2024-05-09T03:35:37.751Z,6.13
2024-05-09T03:40:34.762Z,5.88
2024-05-09T03:45:32.499Z,6.20
2024-05-09T03:50:33.822Z,6.13
2024-05-09T03:55:31.443Z,6.38
2024-05-09T04:00:35.068Z,5.93
2024-05-09T04:05:36.944Z,5.57
2024-05-09T04:10:34.706Z,5.50
2024-05-09T04:15:30.603Z,6.03
2024-05-09T04:20:36.608Z,6.32
2024-05-09T04:25:38.010Z,5.47
2024-05-09T04:30:38.556Z,6.15
2024-05-09T04:35:36.240Z,5.72
2024-05-09T04:40:35.484Z,5.35
2024-05-09T04:45:35.061Z,5.82
2024-05-09T04:50:36.736Z,5.55
2024-05-09T04:55:34.333Z,5.45
2024-05-09T05:00:36.607Z,5.47
2024-05-09T05:05:36.857Z,5.60
2024-05-09T05:10:36.504Z,5.30
2024-05-09T05:15:32.441Z,5.85
2024-05-09T05:20:33.226Z,5.53
2024-05-09T05:25:32.201Z,6.18
2024-05-09T05:30:32.564Z,6.53
2024-05-09T05:35:29.758Z,5.40
2024-05-09T05:40:32.962Z,6.05
2024-05-09T05:45:34.409Z,5.45
2024-05-09T05:50:35.697Z,5.47
2024-05-09T05:55:32.846Z,5.30
2024-05-09T06:00:34.776Z,4.80
2024-05-09T06:05:36.269Z,4.93
2024-05-09T06:10:38.045Z,4.93
2024-05-09T06:15:36.798Z,5.40
2024-05-09T06:20:36.412Z,5.80
2024-05-09T06:25:36.272Z,6.68
2024-05-09T06:30:38.756Z,6.22
2024-05-09T06:35:36.672Z,5.72
2024-05-09T06:40:38.026Z,5.85
2024-05-09T06:45:40.854Z,5.22
2024-05-09T06:50:43.646Z,5.15
2024-05-09T06:55:41.145Z,5.95
2024-05-09T07:00:41.131Z,5.32
2024-05-09T07:05:40.026Z,5.95
2024-05-09T07:10:36.645Z,5.80
2024-05-09T07:15:32.403Z,5.55
2024-05-09T07:20:35.308Z,5.10
2024-05-09T07:25:30.684Z,4.60
2024-05-09T07:30:32.899Z,3.92
2024-05-09T07:35:32.583Z,4.13
2024-05-09T07:40:34.601Z,4.28
2024-05-09T07:45:48.158Z,4.57
2024-05-09T07:55:47.770Z,4.65
2024-05-09T08:00:43.142Z,5.45
2024-05-09T08:05:38.414Z,4.90
2024-05-09T08:10:36.399Z,5.03
2024-05-09T08:15:31.777Z,5.05
2024-05-09T08:20:33.512Z,5.70
2024-05-09T08:25:30.574Z,5.32
2024-05-09T08:30:33.838Z,4.72
2024-05-09T08:35:32.456Z,4.88
2024-05-09T08:40:34.099Z,5.07
2024-05-09T08:45:39.167Z,4.70
2024-05-09T08:50:39.514Z,4.75
2024-05-09T08:55:41.847Z,4.30
2024-05-09T09:00:43.630Z,5.85
2024-05-09T09:05:45.164Z,4.85
2024-05-09T09:10:42.567Z,4.47
2024-05-09T09:15:49.997Z,5.07
2024-05-09T09:20:45.775Z,4.82
2024-05-09T09:25:44.971Z,4.60
2024-05-09T09:30:45.079Z,4.47
2024-05-09T09:35:43.645Z,4.15
2024-05-09T09:40:44.922Z,4.40
2024-05-09T09:45:52.447Z,4.80
2024-05-09T09:50:48.822Z,4.95
2024-05-09T09:55:45.100Z,4.75
2024-05-09T10:00:40.571Z,4.03
2024-05-09T10:05:45.336Z,4.93
2024-05-09T10:10:48.960Z,4.97
2024-05-09T10:15:48.423Z,5.43
2024-05-09T10:20:49.475Z,4.72
2024-05-09T10:25:44.674Z,4.72
2024-05-09T10:30:42.758Z,4.97
2024-05-09T10:35:38.544Z,4.85
2024-05-09T10:40:38.412Z,4.50
2024-05-09T10:45:34.840Z,4.78
2024-05-09T10:50:34.092Z,5.00
2024-05-09T10:55:29.884Z,4.78
2024-05-09T11:00:36.218Z,4.30
2024-05-09T11:05:36.488Z,4.13
2024-05-09T11:10:34.954Z,4.25
2024-05-09T11:15:41.284Z,4.13
2024-05-09T11:20:40.460Z,4.40
2024-05-09T11:25:48.511Z,4.07
2024-05-09T11:30:46.988Z,3.78
2024-05-09T11:35:46.409Z,3.53
2024-05-09T11:40:45.505Z,4.00
2024-05-09T11:45:47.228Z,3.60
2024-05-09T11:50:42.685Z,3.90
2024-05-09T11:55:39.359Z,3.70
2024-05-09T12:00:39.640Z,4.55
2024-05-09T12:05:41.073Z,4.05
2024-05-09T12:10:39.877Z,3.78
2024-05-09T12:15:37.442Z,4.45
2024-05-09T12:20:37.839Z,3.50
2024-05-09T12:25:39.682Z,3.38
2024-05-09T12:40:36.347Z,4.13
2024-05-09T12:45:36.403Z,4.15
2024-05-09T12:50:33.758Z,4.43
2024-05-09T12:55:34.202Z,4.20
2024-05-09T13:00:39.621Z,4.07
2024-05-09T13:05:34.969Z,4.10
2024-05-09T13:10:32.778Z,3.63
2024-05-09T13:15:31.614Z,4.50
2024-05-09T13:20:33.235Z,3.60
2024-05-09T13:25:34.581Z,3.95
2024-05-09T13:30:38.540Z,4.07
2024-05-09T13:35:53.329Z,4.00
2024-05-09T13:40:49.822Z,4.60
2024-05-09T13:45:45.709Z,4.07
2024-05-09T13:50:41.934Z,4.40
2024-05-09T13:55:41.163Z,4.00
2024-05-09T14:00:44.655Z,4.03
2024-05-09T14:05:43.894Z,3.72
2024-05-09T14:10:44.432Z,3.60
2024-05-09T14:15:40.497Z,3.70
2024-05-09T14:20:35.825Z,3.90
2024-05-09T14:25:35.739Z,3.70
2024-05-09T14:30:51.358Z,3.78
2024-05-09T14:35:46.634Z,3.90
2024-05-09T14:40:43.926Z,4.38
2024-05-09T14:45:42.237Z,3.50
2024-05-09T14:50:40.078Z,3.58
2024-05-09T14:55:37.623Z,3.85
2024-05-09T15:00:36.163Z,3.95
2024-05-09T15:05:35.435Z,4.05
2024-05-09T15:10:34.866Z,4.13
2024-05-09T15:15:34.338Z,6.00
2024-05-09T15:20:34.755Z,4.85
2024-05-09T15:25:36.621Z,4.75
2024-05-09T15:30:33.955Z,4.72
2024-05-09T15:35:30.101Z,4.22
2024-05-09T15:40:35.135Z,4.78
2024-05-09T15:45:37.464Z,4.25
2024-05-09T15:50:38.607Z,3.38
2024-05-09T15:55:36.521Z,4.15
2024-05-09T16:00:38.662Z,3.60
2024-05-09T16:05:50.204Z,3.40
2024-05-09T16:10:49.909Z,3.97
2024-05-09T16:15:51.874Z,3.97
2024-05-09T16:20:50.571Z,4.65
2024-05-09T16:25:48.475Z,3.55
2024-05-09T16:30:44.033Z,4.00
2024-05-09T16:35:39.738Z,3.83
2024-05-09T16:40:41.125Z,4.30
2024-05-09T16:45:47.767Z,3.88
2024-05-09T16:50:44.298Z,4.07
2024-05-09T16:55:42.315Z,4.65
2024-05-09T17:00:42.120Z,4.95
2024-05-09T17:05:51.062Z,4.47
2024-05-09T17:10:53.140Z,5.10
2024-05-09T17:15:48.906Z,4.70
2024-05-09T17:20:45.557Z,5.22
2024-05-09T17:25:43.439Z,6.03
2024-05-09T17:30:44.448Z,6.38
2024-05-09T17:35:40.791Z,6.03
2024-05-09T17:40:37.938Z,6.63
2024-05-09T17:45:34.522Z,6.78
2024-05-09T17:50:37.342Z,6.47
2024-05-09T18:01:26.252Z,6.20
2024-05-09T18:06:24.645Z,5.55
2024-05-09T18:11:22.540Z,5.47
2024-05-09T18:16:18.890Z,5.30
2024-05-09T18:21:14.308Z,5.50
2024-05-09T18:26:12.741Z,5.07
2024-05-09T18:31:10.554Z,5.32
2024-05-09T18:36:05.887Z,4.88
2024-05-09T18:41:01.218Z,5.60
2024-05-09T18:45:59.623Z,5.20
2024-05-09T18:50:56.947Z,4.57
2024-05-09T18:55:54.717Z,5.60
2024-05-09T19:00:54.988Z,5.15
2024-05-09T19:05:54.164Z,5.10
2024-05-09T19:10:52.790Z,5.43
2024-05-09T19:15:48.308Z,6.28
2024-05-09T19:20:43.960Z,5.88
2024-05-09T19:25:43.738Z,5.93
2024-05-09T19:30:41.912Z,5.30
2024-05-09T19:35:38.212Z,5.68
2024-05-09T19:40:38.175Z,5.65
2024-05-09T19:45:36.733Z,6.50
2024-05-09T19:50:40.969Z,7.18
2024-05-09T19:55:39.297Z,6.50
2024-05-09T20:00:40.768Z,5.93
2024-05-09T20:05:40.679Z,5.57
2024-05-09T20:10:40.366Z,5.35
2024-05-09T20:15:40.199Z,5.63
2024-05-09T20:20:39.734Z,6.43
2024-05-09T20:25:37.862Z,5.63
2024-05-09T20:30:34.228Z,6.07
2024-05-09T20:35:33.569Z,6.57
2024-05-09T20:40:33.209Z,6.57
2024-05-09T20:45:32.100Z,6.68
2024-05-09T20:50:36.411Z,6.53
2024-05-09T20:55:37.931Z,6.57
2024-05-09T21:00:39.604Z,6.00
2024-05-09T21:05:38.397Z,6.18
2024-05-09T21:10:34.676Z,6.85
2024-05-09T21:15:32.934Z,6.78
2024-05-09T21:20:31.773Z,6.55
2024-05-09T21:25:31.216Z,6.82
2024-05-09T21:30:37.386Z,7.13
2024-05-09T21:35:39.296Z,7.38
2024-05-09T21:40:36.155Z,6.72
2024-05-09T21:45:32.478Z,6.90
2024-05-09T21:50:35.433Z,7.15
2024-05-09T21:55:37.284Z,6.57
2024-05-09T22:00:36.918Z,7.85
2024-05-09T22:05:34.050Z,7.22
2024-05-09T22:10:33.976Z,7.53
2024-05-09T22:15:36.848Z,7.68
2024-05-09T22:20:37.768Z,7.47
2024-05-09T22:25:34.817Z,6.78
2024-05-09T22:30:35.999Z,7.22
2024-05-09T22:35:40.764Z,7.57
2024-05-09T22:40:45.739Z,7.50
2024-05-09T22:45:44.233Z,7.75
2024-05-09T22:50:43.247Z,7.88
2024-05-09T22:55:38.383Z,7.82
2024-05-09T23:00:35.809Z,8.07
2024-05-09T23:05:32.233Z,7.45
2024-05-09T23:10:36.227Z,7.50
2024-05-09T23:15:33.033Z,8.43
2024-05-09T23:20:36.252Z,8.30
2024-05-09T23:25:37.047Z,6.95
2024-05-09T23:30:37.940Z,8.32
2024-05-09T23:35:37.171Z,7.47
2024-05-09T23:40:38.659Z,7.50
2024-05-09T23:45:38.951Z,9.27
2024-05-09T23:50:37.501Z,22.73
2024-05-09T23:55:34.529Z,25.38
